Terminal Aerodrome Forecast
Issued by NWS

Home | Current Version | Previous Version | Text Only | Print | Product List | Glossary On
Versions: 1 2 3 4 5 6 7 8 9 10 11 12 13 14 15 16 17 18 19 20 21
637
FTUS43 KTOP 201132
TAFMHK
TAF
KMHK 201132Z 2012/2112 18008KT P6SM OVC035
      TEMPO 2013/2016 OVC015
     FM201600 21014KT P6SM SCT070
     FM202300 27007KT P6SM SCT200
     FM210400 32004KT P6SM SKC=

USA.gov is the U.S. government's official web portal to all federal, state and local government web resources and services.